createdAt,value
2023-04-22T00:00:10.558Z,105
2023-04-22T00:05:11.174Z,105
2023-04-22T00:06:09.616Z,105
2023-04-22T00:07:10.612Z,103
2023-04-22T00:08:10.531Z,103
2023-04-22T00:09:09.552Z,103
2023-04-22T00:10:10.769Z,103
2023-04-22T00:11:10.564Z,103
2023-04-22T00:12:10.982Z,103
2023-04-22T00:13:11.002Z,103
2023-04-22T00:14:10.416Z,103
2023-04-22T00:15:10.723Z,103
2023-04-22T00:16:10.536Z,103
2023-04-22T00:17:10.816Z,103
2023-04-22T00:18:10.884Z,103
2023-04-22T00:19:10.595Z,103
2023-04-22T00:20:10.622Z,103
2023-04-22T00:21:10.960Z,103
2023-04-22T00:22:11.098Z,103
2023-04-22T00:23:10.474Z,103
2023-04-22T00:24:10.833Z,103
2023-04-22T00:25:11.355Z,103
2023-04-22T00:30:10.370Z,103
2023-04-22T00:31:10.593Z,103
2023-04-22T00:32:10.687Z,103
2023-04-22T00:33:11.357Z,103
2023-04-22T00:34:10.343Z,103
2023-04-22T00:35:10.616Z,103
2023-04-22T00:36:11.209Z,103
2023-04-22T00:37:10.776Z,103
2023-04-22T00:38:11.061Z,103
2023-04-22T00:39:10.775Z,103
2023-04-22T00:40:10.955Z,103
2023-04-22T00:41:10.348Z,103
2023-04-22T00:42:10.584Z,103
2023-04-22T00:43:10.854Z,103
2023-04-22T00:44:11.121Z,103
2023-04-22T00:45:10.299Z,103
2023-04-22T00:46:10.352Z,103
2023-04-22T00:47:10.927Z,103
2023-04-22T00:48:11.274Z,103
2023-04-22T00:50:10.672Z,103
2023-04-22T00:51:10.365Z,103
2023-04-22T00:52:10.687Z,103
2023-04-22T00:53:10.768Z,103
2023-04-22T00:54:11.013Z,103
2023-04-22T00:55:11.268Z,103
2023-04-22T00:56:10.435Z,103
2023-04-22T00:57:10.665Z,103
2023-04-22T00:58:10.874Z,103
2023-04-22T00:59:11.100Z,103
2023-04-22T01:00:10.411Z,103
2023-04-22T01:01:10.373Z,103
2023-04-22T01:02:11.309Z,103
2023-04-22T01:03:11.770Z,103
2023-04-22T01:05:10.608Z,103
2023-04-22T01:06:10.916Z,103
2023-04-22T01:10:10.281Z,106
2023-04-22T01:11:11.095Z,106
2023-04-22T01:12:10.272Z,106
2023-04-22T01:13:10.460Z,106
2023-04-22T01:14:10.747Z,106
2023-04-22T01:15:13.326Z,106
2023-04-22T01:16:11.450Z,106
2023-04-22T01:17:10.499Z,106
2023-04-22T01:18:10.891Z,106
2023-04-22T01:19:11.201Z,106
2023-04-22T01:22:10.696Z,106
2023-04-22T01:23:11.014Z,106
2023-04-22T01:26:10.601Z,106
2023-04-22T01:27:10.791Z,106
2023-04-22T01:28:11.064Z,106
2023-04-22T01:29:11.379Z,106
2023-04-22T01:30:10.420Z,106
2023-04-22T01:31:11.081Z,106
2023-04-22T01:32:10.764Z,106
2023-04-22T01:33:10.895Z,106
2023-04-22T01:34:09.744Z,106
2023-04-22T01:35:11.096Z,106
2023-04-22T01:36:13.136Z,106
2023-04-22T01:37:09.751Z,106
2023-04-22T01:38:11.045Z,106
2023-04-22T01:39:11.344Z,106
2023-04-22T01:40:10.469Z,106
2023-04-22T01:41:10.700Z,106
2023-04-22T01:42:11.116Z,106
2023-04-22T01:43:10.345Z,106
2023-04-22T01:44:10.826Z,106
2023-04-22T01:45:11.242Z,106
2023-04-22T01:48:11.701Z,106
2023-04-22T01:49:11.206Z,106
2023-04-22T01:50:10.439Z,106
2023-04-22T01:51:10.631Z,106
2023-04-22T01:52:10.889Z,106
2023-04-22T01:53:10.895Z,106
2023-04-22T01:54:10.398Z,106
2023-04-22T01:55:10.563Z,106
2023-04-22T01:56:10.666Z,106
2023-04-22T01:57:10.908Z,106
2023-04-22T01:58:11.181Z,106
2023-04-22T01:59:10.368Z,106
2023-04-22T02:00:10.772Z,106
2023-04-22T02:01:10.616Z,106
2023-04-22T02:02:10.864Z,106
2023-04-22T02:03:11.828Z,106
2023-04-22T02:04:10.276Z,106
2023-04-22T02:05:11.005Z,106
2023-04-22T02:08:10.393Z,101
2023-04-22T02:09:10.523Z,101
2023-04-22T02:10:10.858Z,101
2023-04-22T02:11:11.120Z,101
2023-04-22T02:12:10.750Z,101
2023-04-22T02:13:10.827Z,101
2023-04-22T02:14:11.099Z,101
2023-04-22T02:15:10.432Z,101
2023-04-22T02:16:10.904Z,101
2023-04-22T02:17:11.059Z,101
2023-04-22T02:18:10.510Z,101
2023-04-22T02:19:10.728Z,101
2023-04-22T02:20:11.129Z,101
2023-04-22T02:21:11.170Z,101
2023-04-22T02:22:10.448Z,101
2023-04-22T02:23:10.894Z,101
2023-04-22T02:24:10.792Z,101
2023-04-22T02:25:11.346Z,101
2023-04-22T02:27:10.511Z,101
2023-04-22T02:28:10.870Z,101
2023-04-22T02:29:10.770Z,101
2023-04-22T02:30:11.132Z,101
2023-04-22T02:31:11.446Z,101
2023-04-22T02:32:10.358Z,101
2023-04-22T02:33:10.883Z,101
2023-04-22T02:34:10.887Z,101
2023-04-22T02:35:11.298Z,101
2023-04-22T02:36:10.407Z,101
2023-04-22T02:37:10.775Z,101
2023-04-22T02:38:10.764Z,101
2023-04-22T02:39:11.070Z,101
2023-04-22T02:43:10.551Z,101
2023-04-22T02:44:10.626Z,101
2023-04-22T02:45:11.055Z,101
2023-04-22T02:46:10.529Z,101
2023-04-22T02:47:10.972Z,101
2023-04-22T02:48:10.996Z,101
2023-04-22T02:49:11.030Z,101
2023-04-22T02:50:11.140Z,101
2023-04-22T02:51:10.355Z,101
2023-04-22T02:52:10.708Z,101
2023-04-22T02:53:11.248Z,101
2023-04-22T02:54:10.359Z,101
2023-04-22T02:55:11.022Z,101
2023-04-22T02:58:10.418Z,101
2023-04-22T02:59:10.652Z,101
2023-04-22T03:00:11.019Z,101
2023-04-22T03:01:10.749Z,101
2023-04-22T03:02:14.201Z,101
2023-04-22T03:03:11.597Z,101
2023-04-22T03:04:10.767Z,101
2023-04-22T03:08:10.893Z,106
2023-04-22T03:09:10.311Z,106
2023-04-22T03:10:10.504Z,106
2023-04-22T03:11:10.913Z,106
2023-04-22T03:12:11.136Z,106
2023-04-22T03:13:10.306Z,106
2023-04-22T03:14:10.407Z,106
2023-04-22T03:15:10.878Z,106
2023-04-22T03:16:10.828Z,106
2023-04-22T03:17:11.534Z,106
2023-04-22T03:19:10.219Z,106
2023-04-22T03:20:10.875Z,106
2023-04-22T03:21:10.283Z,106
2023-04-22T03:22:10.756Z,106
2023-04-22T03:23:10.852Z,106
2023-04-22T03:24:11.137Z,106
2023-04-22T03:28:10.335Z,106
2023-04-22T03:29:10.759Z,106
2023-04-22T03:30:10.709Z,106
2023-04-22T03:31:10.365Z,106
2023-04-22T03:32:10.718Z,106
2023-04-22T03:33:10.861Z,106
2023-04-22T03:34:10.811Z,106
2023-04-22T03:35:11.245Z,106
2023-04-22T03:36:10.420Z,106
2023-04-22T03:37:10.981Z,106
2023-04-22T03:38:11.069Z,106
2023-04-22T03:42:10.912Z,106
2023-04-22T03:43:11.174Z,106
2023-04-22T03:44:10.973Z,106
2023-04-22T03:45:10.855Z,106
2023-04-22T03:46:10.646Z,106
2023-04-22T03:47:11.917Z,106
2023-04-22T03:49:10.495Z,106
2023-04-22T03:50:10.658Z,106
2023-04-22T03:51:10.762Z,106
2023-04-22T03:52:11.020Z,106
2023-04-22T03:53:11.203Z,106
2023-04-22T03:54:10.436Z,106
2023-04-22T03:55:10.710Z,106
2023-04-22T03:56:10.832Z,106
2023-04-22T03:57:11.213Z,106
2023-04-22T03:58:10.485Z,106
2023-04-22T03:59:10.677Z,106
2023-04-22T04:00:11.030Z,106
2023-04-22T04:01:10.247Z,106
2023-04-22T04:02:11.088Z,106
2023-04-22T04:03:11.984Z,106
2023-04-22T04:04:12.387Z,106
2023-04-22T04:05:10.909Z,106
2023-04-22T04:06:11.240Z,106
2023-04-22T04:07:10.939Z,106
2023-04-22T04:08:11.077Z,106
2023-04-22T04:11:10.695Z,106
2023-04-22T04:12:10.498Z,106
2023-04-22T04:13:10.687Z,106
2023-04-22T04:14:10.630Z,106
2023-04-22T04:15:11.150Z,106
2023-04-22T04:16:10.214Z,106
2023-04-22T04:17:10.558Z,106
2023-04-22T04:18:11.188Z,106
2023-04-22T04:19:11.256Z,106
2023-04-22T04:25:10.302Z,106
2023-04-22T04:26:10.777Z,106
2023-04-22T04:27:11.146Z,106
2023-04-22T04:29:10.574Z,106
2023-04-22T04:30:11.215Z,106
2023-04-22T04:34:11.267Z,106
2023-04-22T04:36:10.778Z,106
2023-04-22T04:37:11.007Z,106
2023-04-22T04:38:10.399Z,106
2023-04-22T04:39:10.644Z,106
2023-04-22T04:40:10.989Z,106
2023-04-22T04:41:11.035Z,106
2023-04-22T04:42:10.137Z,106
2023-04-22T04:43:10.339Z,106
2023-04-22T04:44:10.762Z,106
2023-04-22T04:45:10.925Z,106
2023-04-22T04:48:10.916Z,106
2023-04-22T04:49:11.149Z,106
2023-04-22T04:50:10.178Z,106
2023-04-22T04:51:10.422Z,106
2023-04-22T04:52:10.803Z,106
2023-04-22T04:53:10.904Z,106
2023-04-22T04:54:11.350Z,106
2023-04-22T04:55:10.639Z,106
2023-04-22T04:56:10.562Z,106
2023-04-22T04:57:10.836Z,106
2023-04-22T04:58:11.037Z,106
2023-04-22T04:59:11.245Z,106
2023-04-22T05:00:10.375Z,106
2023-04-22T05:01:10.759Z,106
2023-04-22T05:02:11.669Z,106
2023-04-22T05:05:10.664Z,106
2023-04-22T05:06:10.377Z,106
2023-04-22T05:07:10.941Z,103
2023-04-22T05:08:11.152Z,103
2023-04-22T05:13:11.069Z,103
2023-04-22T05:14:10.568Z,103
2023-04-22T05:15:10.865Z,103
2023-04-22T05:16:11.301Z,103
2023-04-22T05:17:10.343Z,103
2023-04-22T05:18:10.927Z,103
2023-04-22T05:19:11.158Z,103
2023-04-22T05:21:10.708Z,103
2023-04-22T05:22:10.840Z,103
2023-04-22T05:23:11.230Z,103
2023-04-22T05:24:10.265Z,103
2023-04-22T05:25:10.654Z,103
2023-04-22T05:26:10.732Z,103
2023-04-22T05:27:11.161Z,103
2023-04-22T05:28:10.112Z,103
2023-04-22T05:29:10.472Z,103
2023-04-22T05:30:10.828Z,103
2023-04-22T05:34:11.008Z,103
2023-04-22T05:36:10.951Z,103
2023-04-22T05:37:11.136Z,103
2023-04-22T05:38:10.387Z,103
2023-04-22T05:39:10.560Z,103
2023-04-22T05:40:11.131Z,103
2023-04-22T05:41:10.394Z,103
2023-04-22T05:42:10.613Z,103
2023-04-22T05:43:11.247Z,103
2023-04-22T05:47:10.327Z,103
2023-04-22T05:48:11.115Z,103
2023-04-22T05:50:11.367Z,103
2023-04-22T05:51:10.528Z,103
2023-04-22T05:52:10.657Z,103
2023-04-22T05:53:10.751Z,103
2023-04-22T05:54:11.204Z,103
2023-04-22T05:55:11.484Z,103
2023-04-22T05:56:10.263Z,103
2023-04-22T05:57:10.659Z,103
2023-04-22T05:58:11.169Z,103
2023-04-22T05:59:11.015Z,103
2023-04-22T06:00:10.650Z,103
2023-04-22T06:05:11.924Z,103
2023-04-22T06:06:10.741Z,103
2023-04-22T06:07:10.978Z,107
2023-04-22T06:08:11.003Z,107
2023-04-22T06:09:10.374Z,107
2023-04-22T06:10:12.094Z,107
2023-04-22T06:11:10.585Z,107
2023-04-22T06:12:11.226Z,107
2023-04-22T06:17:10.576Z,107
2023-04-22T06:18:10.914Z,107
2023-04-22T06:19:11.334Z,107
2023-04-22T06:20:10.452Z,107
2023-04-22T06:21:10.498Z,107
2023-04-22T06:22:10.733Z,107
2023-04-22T06:23:10.914Z,107
2023-04-22T06:24:11.149Z,107
2023-04-22T06:26:10.543Z,107
2023-04-22T06:27:10.915Z,107
2023-04-22T06:28:11.208Z,107
2023-04-22T06:32:10.988Z,107
2023-04-22T06:33:10.401Z,107
2023-04-22T06:34:10.739Z,107
2023-04-22T06:35:10.965Z,107
2023-04-22T06:36:11.066Z,107
2023-04-22T06:37:11.253Z,107
2023-04-22T06:38:10.266Z,107
2023-04-22T06:39:10.762Z,107
2023-04-22T06:40:11.213Z,107
2023-04-22T06:44:10.344Z,107
2023-04-22T06:45:10.566Z,107
2023-04-22T06:46:10.577Z,107
2023-04-22T06:47:11.024Z,107
2023-04-22T06:48:11.150Z,107
2023-04-22T06:49:10.779Z,107
2023-04-22T06:50:11.158Z,107
2023-04-22T06:51:10.958Z,107
2023-04-22T06:52:11.066Z,107
2023-04-22T06:53:10.199Z,107
2023-04-22T06:54:10.616Z,107
2023-04-22T06:55:10.967Z,107
2023-04-22T06:56:11.290Z,107
2023-04-22T06:57:10.474Z,107
2023-04-22T06:58:10.637Z,107
2023-04-22T06:59:10.534Z,107
2023-04-22T07:00:11.005Z,107
2023-04-22T07:06:10.533Z,107
2023-04-22T07:07:10.734Z,105
2023-04-22T07:08:10.788Z,105
2023-04-22T07:09:11.158Z,105
2023-04-22T07:11:11.026Z,105
2023-04-22T07:12:10.472Z,105
2023-04-22T07:13:10.762Z,105
2023-04-22T07:14:11.117Z,105
2023-04-22T07:15:09.850Z,105
2023-04-22T07:16:11.511Z,105
2023-04-22T07:17:10.524Z,105
2023-04-22T07:18:09.702Z,105
2023-04-22T07:19:11.022Z,105
2023-04-22T07:20:11.441Z,105
2023-04-22T07:21:10.460Z,105
2023-04-22T07:22:10.546Z,105
2023-04-22T07:23:11.077Z,105
2023-04-22T07:24:11.264Z,105
2023-04-22T07:25:11.053Z,105
2023-04-22T07:29:10.210Z,105
2023-04-22T07:30:10.704Z,105
2023-04-22T07:31:10.920Z,105
2023-04-22T07:32:11.381Z,105
2023-04-22T07:35:10.397Z,105
2023-04-22T07:36:10.704Z,105
2023-04-22T07:37:11.042Z,105
2023-04-22T07:38:14.962Z,105
2023-04-22T07:40:10.546Z,105
2023-04-22T07:41:10.785Z,105
2023-04-22T07:42:11.033Z,105
2023-04-22T07:43:10.293Z,105
2023-04-22T07:44:10.460Z,105
2023-04-22T07:45:10.628Z,105
2023-04-22T07:46:11.100Z,105
2023-04-22T07:47:10.427Z,105
2023-04-22T07:48:10.768Z,105
2023-04-22T07:49:10.863Z,105
2023-04-22T07:50:11.268Z,105
2023-04-22T07:51:10.994Z,105
2023-04-22T07:56:10.241Z,105
2023-04-22T07:57:10.448Z,105
2023-04-22T07:58:10.818Z,105
2023-04-22T07:59:11.236Z,105
2023-04-22T08:00:10.489Z,105
2023-04-22T08:01:10.772Z,105
2023-04-22T08:02:11.427Z,105
2023-04-22T08:03:12.255Z,105
2023-04-22T08:04:11.808Z,105
2023-04-22T08:05:10.787Z,105
2023-04-22T08:07:38.075Z,102
2023-04-22T08:09:10.700Z,102
2023-04-22T08:10:11.057Z,102
2023-04-22T08:16:11.289Z,102
2023-04-22T08:17:10.288Z,102
2023-04-22T08:18:11.144Z,102
2023-04-22T08:19:11.012Z,102
2023-04-22T08:20:13.789Z,102
2023-04-22T08:21:11.173Z,102
2023-04-22T08:27:10.293Z,102
2023-04-22T08:28:10.674Z,102
2023-04-22T08:29:10.907Z,102
2023-04-22T08:30:11.034Z,102
2023-04-22T08:31:11.045Z,102
2023-04-22T08:32:10.272Z,102
2023-04-22T08:33:10.435Z,102
2023-04-22T08:34:10.613Z,102
2023-04-22T08:35:14.460Z,102
2023-04-22T08:36:10.403Z,102
2023-04-22T08:37:10.702Z,102
2023-04-22T08:38:10.973Z,102
2023-04-22T08:39:10.056Z,102
2023-04-22T08:40:10.573Z,102
2023-04-22T08:41:10.838Z,102
2023-04-22T08:44:10.670Z,102
2023-04-22T08:45:11.213Z,102
2023-04-22T08:46:10.591Z,102
2023-04-22T08:47:12.485Z,102
2023-04-22T08:48:11.127Z,102
2023-04-22T08:49:11.089Z,102
2023-04-22T08:50:10.475Z,102
2023-04-22T08:51:10.761Z,102
2023-04-22T08:52:10.783Z,102
2023-04-22T08:57:10.495Z,102
2023-04-22T08:58:10.730Z,102
2023-04-22T08:59:10.958Z,102
2023-04-22T09:00:10.597Z,102
2023-04-22T09:01:10.903Z,102
2023-04-22T09:02:11.594Z,102
2023-04-22T09:03:10.595Z,102
2023-04-22T09:04:11.635Z,102
2023-04-22T09:05:10.817Z,102
2023-04-22T09:06:11.248Z,102
2023-04-22T09:11:10.522Z,107
2023-04-22T09:12:10.646Z,107
2023-04-22T09:13:11.218Z,107
2023-04-22T09:14:10.401Z,107
2023-04-22T09:15:10.754Z,107
2023-04-22T09:16:11.416Z,107
2023-04-22T09:17:11.169Z,107
2023-04-22T09:18:10.540Z,107
2023-04-22T09:19:10.798Z,107
2023-04-22T09:20:11.058Z,107
2023-04-22T09:21:11.276Z,107
2023-04-22T09:22:10.572Z,107
2023-04-22T09:23:10.599Z,107
2023-04-22T09:24:11.093Z,107
2023-04-22T09:25:11.338Z,107
2023-04-22T09:27:10.662Z,107
2023-04-22T09:28:11.101Z,107
2023-04-22T09:29:11.174Z,107
2023-04-22T09:34:10.305Z,107
2023-04-22T09:35:10.634Z,107
2023-04-22T09:36:10.724Z,107
2023-04-22T09:37:10.899Z,107
2023-04-22T09:38:11.150Z,107
2023-04-22T09:42:10.314Z,107
2023-04-22T09:43:10.567Z,107
2023-04-22T09:44:10.702Z,107
2023-04-22T09:45:11.131Z,107
2023-04-22T09:46:11.041Z,107
2023-04-22T09:49:10.547Z,107
2023-04-22T09:50:10.904Z,107
2023-04-22T09:51:11.203Z,107
2023-04-22T09:56:10.007Z,107
2023-04-22T09:57:12.723Z,107
2023-04-22T09:58:11.166Z,107
2023-04-22T10:02:10.739Z,107
2023-04-22T10:03:14.332Z,107
2023-04-22T10:06:10.334Z,107
2023-04-22T10:07:10.715Z,107
2023-04-22T10:08:11.549Z,107
2023-04-22T10:09:13.299Z,107
2023-04-22T10:13:10.507Z,107
2023-04-22T10:14:10.607Z,107
2023-04-22T10:15:11.122Z,107
2023-04-22T10:16:10.589Z,107
2023-04-22T10:17:11.337Z,107
2023-04-22T10:18:10.294Z,107
2023-04-22T10:19:10.785Z,107
2023-04-22T10:20:10.705Z,107
2023-04-22T10:21:11.050Z,107
2023-04-22T10:22:11.298Z,107
2023-04-22T10:26:10.617Z,107
2023-04-22T10:27:10.953Z,107
2023-04-22T10:28:11.081Z,107
2023-04-22T10:29:10.482Z,107
2023-04-22T10:30:10.977Z,107
2023-04-22T10:31:11.351Z,107
2023-04-22T10:32:11.296Z,107
2023-04-22T10:36:10.452Z,107
2023-04-22T10:37:10.574Z,107
2023-04-22T10:38:10.731Z,107
2023-04-22T10:39:11.102Z,107
2023-04-22T10:40:10.361Z,107
2023-04-22T10:41:10.633Z,107
2023-04-22T10:42:10.963Z,107
2023-04-22T10:43:11.214Z,107
2023-04-22T10:44:11.027Z,107
2023-04-22T10:45:10.333Z,107
2023-04-22T10:46:10.835Z,107
2023-04-22T10:49:13.231Z,107
2023-04-22T10:50:10.405Z,107
2023-04-22T10:51:10.554Z,107
2023-04-22T10:52:10.833Z,107
2023-04-22T10:53:11.098Z,107
2023-04-22T10:59:10.576Z,107
2023-04-22T11:00:10.795Z,107
2023-04-22T11:01:10.585Z,107
2023-04-22T11:02:11.030Z,107
2023-04-22T11:03:11.976Z,107
2023-04-22T11:04:11.507Z,107
2023-04-22T11:05:10.392Z,107
2023-04-22T11:06:11.097Z,107
2023-04-22T11:07:10.310Z,103
2023-04-22T11:08:10.535Z,103
2023-04-22T11:09:10.726Z,103
2023-04-22T11:13:10.308Z,103
2023-04-22T11:14:10.650Z,103
2023-04-22T11:15:10.862Z,103
2023-04-22T11:16:11.451Z,103
2023-04-22T11:17:10.556Z,103
2023-04-22T11:18:10.913Z,103
2023-04-22T11:19:11.243Z,103
2023-04-22T11:20:10.440Z,103
2023-04-22T11:21:10.321Z,103
2023-04-22T11:22:10.626Z,103
2023-04-22T11:23:10.780Z,103
2023-04-22T11:24:11.113Z,103
2023-04-22T11:25:10.332Z,103
2023-04-22T11:26:10.956Z,103
2023-04-22T11:27:10.542Z,103
2023-04-22T11:28:10.803Z,103
2023-04-22T11:31:11.075Z,103
2023-04-22T11:32:11.393Z,103
2023-04-22T11:33:10.546Z,103
2023-04-22T11:34:10.887Z,103
2023-04-22T11:35:11.188Z,103
2023-04-22T11:36:11.390Z,103
2023-04-22T11:37:10.365Z,103
2023-04-22T11:38:10.620Z,103
2023-04-22T11:39:10.733Z,103
2023-04-22T11:40:46.673Z,103
2023-04-22T11:42:10.350Z,103
2023-04-22T11:43:10.827Z,103
2023-04-22T11:44:11.061Z,103
2023-04-22T11:45:11.259Z,103
2023-04-22T11:46:10.554Z,103
2023-04-22T11:47:10.608Z,103
2023-04-22T11:48:10.984Z,103
2023-04-22T11:49:11.012Z,103
2023-04-22T11:54:10.369Z,103
2023-04-22T11:55:10.503Z,103
2023-04-22T11:56:10.720Z,103
2023-04-22T11:57:10.975Z,103
2023-04-22T11:58:11.157Z,103
2023-04-22T11:59:10.475Z,103
2023-04-22T12:00:10.801Z,103
2023-04-22T12:05:10.722Z,103
2023-04-22T12:06:10.968Z,103
2023-04-22T12:07:11.160Z,104
2023-04-22T12:08:10.276Z,104
2023-04-22T12:09:11.974Z,104
2023-04-22T12:10:10.931Z,104
2023-04-22T12:11:11.102Z,104
2023-04-22T12:12:11.201Z,104
2023-04-22T12:13:10.479Z,104
2023-04-22T12:14:10.646Z,104
2023-04-22T12:15:12.777Z,104
2023-04-22T12:16:11.049Z,104
2023-04-22T12:17:10.597Z,104
2023-04-22T12:18:10.660Z,104
2023-04-22T12:19:10.594Z,104
2023-04-22T12:20:10.812Z,104
2023-04-22T12:21:11.210Z,104
2023-04-22T12:25:10.946Z,104
2023-04-22T12:29:10.899Z,104
2023-04-22T12:33:10.301Z,104
2023-04-22T12:34:10.855Z,104
2023-04-22T12:35:10.681Z,104
2023-04-22T12:36:11.277Z,104
2023-04-22T12:37:10.438Z,104
2023-04-22T12:38:10.820Z,104
2023-04-22T12:39:11.027Z,104
2023-04-22T12:40:10.159Z,104
2023-04-22T12:41:10.448Z,104
2023-04-22T12:42:10.612Z,104
2023-04-22T12:43:11.189Z,104
2023-04-22T12:44:10.199Z,104
2023-04-22T12:45:10.440Z,104
2023-04-22T12:46:10.986Z,104
2023-04-22T12:47:10.668Z,104
2023-04-22T12:48:10.992Z,104
2023-04-22T12:51:10.412Z,104
2023-04-22T12:52:10.543Z,104
2023-04-22T12:53:11.338Z,104
2023-04-22T12:54:10.404Z,104
2023-04-22T12:55:10.746Z,104
2023-04-22T13:00:10.530Z,104
2023-04-22T13:01:10.828Z,104
2023-04-22T13:02:11.464Z,104
2023-04-22T13:03:10.989Z,104
2023-04-22T13:04:11.383Z,104
2023-04-22T13:05:10.906Z,104
2023-04-22T13:06:10.255Z,104
2023-04-22T13:07:10.273Z,106
2023-04-22T13:08:16.187Z,106
2023-04-22T13:09:10.888Z,106
2023-04-22T13:10:11.237Z,106
2023-04-22T13:13:26.136Z,106
2023-04-22T13:15:11.244Z,106
2023-04-22T13:16:10.520Z,106
2023-04-22T13:17:10.816Z,106
2023-04-22T13:18:11.326Z,106
2023-04-22T13:19:10.236Z,106
2023-04-22T13:20:10.524Z,106
2023-04-22T13:21:10.751Z,106
2023-04-22T13:22:11.128Z,106
2023-04-22T13:23:10.183Z,106
2023-04-22T13:24:10.504Z,106
2023-04-22T13:25:10.784Z,106
2023-04-22T13:26:10.919Z,106
2023-04-22T13:27:11.037Z,106
2023-04-22T13:28:10.599Z,106
2023-04-22T13:29:11.530Z,106
2023-04-22T13:31:10.440Z,106
2023-04-22T13:32:10.610Z,106
2023-04-22T13:33:10.837Z,106
2023-04-22T13:34:10.820Z,106
2023-04-22T13:35:10.341Z,106
2023-04-22T13:36:10.571Z,106
2023-04-22T13:37:10.514Z,106
2023-04-22T13:38:11.091Z,106
2023-04-22T13:42:11.159Z,106
2023-04-22T13:43:10.261Z,106
2023-04-22T13:44:10.467Z,106
2023-04-22T13:45:10.905Z,106
2023-04-22T13:48:10.977Z,106
2023-04-22T13:49:11.289Z,106
2023-04-22T13:50:10.463Z,106
2023-04-22T13:51:10.177Z,106
2023-04-22T13:52:10.426Z,106
2023-04-22T13:53:10.691Z,106
2023-04-22T13:54:10.656Z,106
2023-04-22T13:55:10.370Z,106
2023-04-22T13:56:10.844Z,106
2023-04-22T13:57:11.230Z,106
2023-04-22T14:01:11.054Z,106
2023-04-22T14:02:10.310Z,106
2023-04-22T14:03:11.329Z,106
2023-04-22T14:05:10.545Z,106
2023-04-22T14:06:11.115Z,106
2023-04-22T14:07:11.062Z,99
2023-04-22T14:08:10.420Z,99
2023-04-22T14:09:10.646Z,99
2023-04-22T14:10:11.047Z,99
2023-04-22T14:11:10.459Z,99
2023-04-22T14:12:10.884Z,99
2023-04-22T14:13:11.033Z,99
2023-04-22T14:14:10.410Z,99
2023-04-22T14:15:10.644Z,99
2023-04-22T14:16:13.771Z,99
2023-04-22T14:17:11.677Z,99
2023-04-22T14:22:10.461Z,99
2023-04-22T14:23:10.824Z,99
2023-04-22T14:24:10.995Z,99
2023-04-22T14:25:10.145Z,99
2023-04-22T14:26:09.817Z,99
2023-04-22T14:27:12.575Z,99
2023-04-22T14:29:10.434Z,99
2023-04-22T14:30:10.753Z,99
2023-04-22T14:31:11.430Z,99
2023-04-22T14:32:10.359Z,99
2023-04-22T14:33:10.742Z,99
2023-04-22T14:34:10.649Z,99
2023-04-22T14:35:10.994Z,99
2023-04-22T14:36:10.511Z,99
2023-04-22T14:37:10.639Z,99
2023-04-22T14:38:10.961Z,99
2023-04-22T14:39:11.258Z,99
2023-04-22T14:43:10.433Z,99
2023-04-22T14:44:10.744Z,99
2023-04-22T14:45:10.975Z,99
2023-04-22T14:46:10.596Z,99
2023-04-22T14:47:10.365Z,99
2023-04-22T14:48:11.114Z,99
2023-04-22T14:51:10.697Z,99
2023-04-22T14:52:11.231Z,99
2023-04-22T14:53:10.053Z,99
2023-04-22T14:54:10.488Z,99
2023-04-22T14:55:29.768Z,99
2023-04-22T14:57:10.357Z,99
2023-04-22T14:58:10.811Z,99
2023-04-22T14:59:10.976Z,99
2023-04-22T15:00:11.484Z,99
2023-04-22T15:01:12.360Z,99
2023-04-22T15:02:10.869Z,99
2023-04-22T15:03:11.742Z,99
2023-04-22T15:04:10.738Z,99
2023-04-22T15:05:10.695Z,99
2023-04-22T15:06:10.705Z,99
2023-04-22T15:07:13.962Z,101
2023-04-22T15:08:10.295Z,101
2023-04-22T15:09:10.544Z,101
2023-04-22T15:10:11.048Z,101
2023-04-22T15:11:10.345Z,101
2023-04-22T15:12:10.978Z,101
2023-04-22T15:13:11.169Z,101
2023-04-22T15:14:10.339Z,101
2023-04-22T15:15:10.392Z,101
2023-04-22T15:16:11.414Z,101
2023-04-22T15:17:10.128Z,101
2023-04-22T15:18:10.755Z,101
2023-04-22T15:19:10.902Z,101
2023-04-22T15:20:12.989Z,101
2023-04-22T15:24:10.526Z,101
2023-04-22T15:25:11.070Z,101
2023-04-22T15:26:11.193Z,101
2023-04-22T15:29:11.299Z,101
2023-04-22T15:30:10.612Z,101
2023-04-22T15:31:10.829Z,101
2023-04-22T15:32:11.079Z,101
2023-04-22T15:33:10.496Z,101
2023-04-22T15:34:10.589Z,101
2023-04-22T15:35:11.081Z,101
2023-04-22T15:36:11.111Z,101
2023-04-22T15:37:11.436Z,101
2023-04-22T15:38:10.350Z,101
2023-04-22T15:39:10.736Z,101
2023-04-22T15:40:11.217Z,101
2023-04-22T15:41:10.352Z,101
2023-04-22T15:42:10.622Z,101
2023-04-22T15:43:11.055Z,101
2023-04-22T15:44:15.094Z,101
2023-04-22T15:46:10.291Z,101
2023-04-22T15:47:11.347Z,101
2023-04-22T15:48:11.047Z,101
2023-04-22T15:49:11.278Z,101
2023-04-22T15:50:11.791Z,101
2023-04-22T15:52:10.344Z,101
2023-04-22T15:53:10.676Z,101
2023-04-22T15:54:10.894Z,101
2023-04-22T15:55:11.602Z,101
2023-04-22T15:56:11.099Z,101
2023-04-22T15:57:10.274Z,101
2023-04-22T15:58:10.406Z,101
2023-04-22T15:59:10.710Z,101
2023-04-22T16:00:20.584Z,101
2023-04-22T16:01:24.871Z,101
2023-04-22T16:03:11.809Z,101
2023-04-22T16:04:11.103Z,101
2023-04-22T16:07:10.706Z,101
2023-04-22T16:08:10.129Z,101
2023-04-22T16:09:10.387Z,101
2023-04-22T16:10:11.151Z,101
2023-04-22T16:14:10.426Z,101
2023-04-22T16:15:10.725Z,101
2023-04-22T16:16:11.001Z,101
2023-04-22T16:17:10.209Z,101
2023-04-22T16:18:09.528Z,101
2023-04-22T16:19:10.613Z,101
2023-04-22T16:20:10.800Z,101
2023-04-22T16:21:11.351Z,101
2023-04-22T16:22:10.588Z,101
2023-04-22T16:23:10.836Z,101
2023-04-22T16:24:11.154Z,101
2023-04-22T16:25:10.513Z,101
2023-04-22T16:26:11.004Z,101
2023-04-22T16:27:11.118Z,101
2023-04-22T16:28:10.220Z,101
2023-04-22T16:29:10.553Z,101
2023-04-22T16:30:10.800Z,101
2023-04-22T16:31:11.381Z,101
2023-04-22T16:32:10.418Z,101
2023-04-22T16:33:11.390Z,101
2023-04-22T16:36:10.731Z,101
2023-04-22T16:37:11.101Z,101
2023-04-22T16:38:11.236Z,101
2023-04-22T16:39:10.569Z,101
2023-04-22T16:40:10.826Z,101
2023-04-22T16:41:11.134Z,101
2023-04-22T16:42:10.357Z,101
2023-04-22T16:43:10.401Z,101
2023-04-22T16:44:10.743Z,101
2023-04-22T16:45:11.059Z,101
2023-04-22T16:46:10.947Z,101
2023-04-22T16:47:09.745Z,101
2023-04-22T16:48:11.355Z,101
2023-04-22T16:49:12.747Z,101
2023-04-22T16:50:10.749Z,101
2023-04-22T16:51:10.971Z,101
2023-04-22T16:52:11.158Z,101
2023-04-22T16:57:10.558Z,101
2023-04-22T16:58:10.524Z,101
2023-04-22T16:59:10.812Z,101
2023-04-22T17:00:11.044Z,101
2023-04-22T17:01:10.697Z,101
2023-04-22T17:02:10.611Z,101
2023-04-22T17:03:11.848Z,101
2023-04-22T17:05:10.390Z,101
2023-04-22T17:06:10.284Z,101
2023-04-22T17:07:10.825Z,102
2023-04-22T17:08:11.034Z,102
2023-04-22T17:11:10.330Z,102
2023-04-22T17:12:10.455Z,102
2023-04-22T17:13:10.728Z,102
2023-04-22T17:14:11.202Z,102
2023-04-22T17:15:11.337Z,102
2023-04-22T17:16:10.672Z,102
2023-04-22T17:19:10.228Z,102
2023-04-22T17:20:10.595Z,102
2023-04-22T17:21:10.928Z,102
2023-04-22T17:22:11.272Z,102
2023-04-22T17:23:10.378Z,102
2023-04-22T17:24:10.612Z,102
2023-04-22T17:25:11.079Z,102
2023-04-22T17:26:11.128Z,102
2023-04-22T17:27:10.291Z,102
2023-04-22T17:28:10.816Z,102
2023-04-22T17:29:11.060Z,102
2023-04-22T17:34:10.265Z,102
2023-04-22T17:35:10.682Z,102
2023-04-22T17:36:10.599Z,102
2023-04-22T17:37:10.981Z,102
2023-04-22T17:38:11.198Z,102
2023-04-22T17:39:10.287Z,102
2023-04-22T17:40:10.592Z,102
2023-04-22T17:41:10.521Z,102
2023-04-22T17:42:10.753Z,102
2023-04-22T17:43:09.766Z,102